0A9

Elizabethton Municipal Airport

Elizabethton, Tennessee, USA
METAR K0A9 161955Z AUTO VRB05KT 10SM CLR 31/18 A3015 RMK AO2
Observed Flight Rules
Aug-16 @ 19:55 UTC (15 minutes ago) Visual Flight Rules
Wind Visibility Clouds
Variable at 5 knots 10 miles
  • Clear skies
Temperatures Readings
Current 31°C / 88°F
Dewpoint 18°C / 64°F
Humidity 46%
Altimeter 30.15" Hg
Pressure 1021 hPa
Elevation 486
METAR K0A9 161955Z AUTO VRB05KT 10SM CLR 31/18 A3015 RMK AO2
Observed Flight Rules
Aug-16 @ 19:55 UTC
(15 minutes ago)
VFR
Wind Visibility
Variable at 5 knots 10 miles
Clouds
  • Clear skies
Temperature Dewpoint
31°C / 88°F 18°C / 64°F
Humidity Altimeter Pressure
46% 30.15" Hg 1021 hPa